sensor_id;sensor_type;location;lat;lon;timestamp;pressure;altitude;pressure_sealevel;temperature;humidity
5814;BME280;2933;52.302;8.134;2022-08-14T00:03:00;100519.75;;;20.57;65.96
5814;BME280;2933;52.302;8.134;2022-08-14T00:08:03;100533.69;;;20.59;65.94
5814;BME280;2933;52.302;8.134;2022-08-14T00:13:05;100525.72;;;20.59;66.20
5814;BME280;2933;52.302;8.134;2022-08-14T00:18:08;100524.69;;;20.52;66.10
5814;BME280;2933;52.302;8.134;2022-08-14T00:23:14;100518.97;;;20.39;67.42
5814;BME280;2933;52.302;8.134;2022-08-14T00:28:16;100508.38;;;20.39;66.78
5814;BME280;2933;52.302;8.134;2022-08-14T00:33:18;100523.09;;;20.33;67.54
5814;BME280;2933;52.302;8.134;2022-08-14T00:38:21;100506.66;;;20.29;67.91
5814;BME280;2933;52.302;8.134;2022-08-14T00:43:23;100493.44;;;20.11;67.77
5814;BME280;2933;52.302;8.134;2022-08-14T00:48:24;100492.69;;;20.19;67.78
5814;BME280;2933;52.302;8.134;2022-08-14T00:53:27;100490.50;;;20.14;68.45
5814;BME280;2933;52.302;8.134;2022-08-14T00:58:29;100497.06;;;20.10;68.76
5814;BME280;2933;52.302;8.134;2022-08-14T01:03:33;100481.66;;;20.06;68.18
5814;BME280;2933;52.302;8.134;2022-08-14T01:08:38;100484.31;;;20.06;68.41
5814;BME280;2933;52.302;8.134;2022-08-14T01:13:43;100485.44;;;20.03;68.44
5814;BME280;2933;52.302;8.134;2022-08-14T01:18:45;100478.50;;;19.84;69.71
5814;BME280;2933;52.302;8.134;2022-08-14T01:24:07;100468.50;;;19.78;69.99
5814;BME280;2933;52.302;8.134;2022-08-14T01:29:09;100459.97;;;19.66;70.63
5814;BME280;2933;52.302;8.134;2022-08-14T01:34:11;100465.09;;;19.67;70.89
5814;BME280;2933;52.302;8.134;2022-08-14T01:39:16;100467.56;;;19.61;70.51
5814;BME280;2933;52.302;8.134;2022-08-14T01:44:17;100437.63;;;19.50;70.45
5814;BME280;2933;52.302;8.134;2022-08-14T01:49:21;100444.44;;;19.71;70.38
5814;BME280;2933;52.302;8.134;2022-08-14T01:54:24;100444.44;;;19.71;70.08
5814;BME280;2933;52.302;8.134;2022-08-14T01:59:28;100440.44;;;19.67;70.85
5814;BME280;2933;52.302;8.134;2022-08-14T02:04:34;100430.19;;;19.72;69.98
5814;BME280;2933;52.302;8.134;2022-08-14T02:09:37;100428.09;;;19.58;70.57
5814;BME280;2933;52.302;8.134;2022-08-14T02:14:39;100427.88;;;19.51;71.02
5814;BME280;2933;52.302;8.134;2022-08-14T02:19:40;100421.94;;;19.31;72.45
5814;BME280;2933;52.302;8.134;2022-08-14T02:24:44;100414.28;;;19.28;72.33
5814;BME280;2933;52.302;8.134;2022-08-14T02:29:45;100411.88;;;19.16;72.98
5814;BME280;2933;52.302;8.134;2022-08-14T02:34:47;100408.84;;;19.11;73.20
5814;BME280;2933;52.302;8.134;2022-08-14T02:39:50;100407.53;;;19.15;73.00
5814;BME280;2933;52.302;8.134;2022-08-14T02:44:52;100401.88;;;19.10;73.34
5814;BME280;2933;52.302;8.134;2022-08-14T02:49:53;100391.28;;;19.28;72.15
5814;BME280;2933;52.302;8.134;2022-08-14T02:54:57;100386.91;;;19.19;72.97
5814;BME280;2933;52.302;8.134;2022-08-14T02:59:59;100388.03;;;19.16;72.80
5814;BME280;2933;52.302;8.134;2022-08-14T03:05:02;100380.53;;;19.12;73.25
5814;BME280;2933;52.302;8.134;2022-08-14T03:10:07;100378.13;;;19.00;73.60
5814;BME280;2933;52.302;8.134;2022-08-14T03:15:09;100379.63;;;19.03;73.53
5814;BME280;2933;52.302;8.134;2022-08-14T03:20:13;100369.16;;;18.83;74.26
5814;BME280;2933;52.302;8.134;2022-08-14T03:25:16;100351.97;;;18.97;73.61
5814;BME280;2933;52.302;8.134;2022-08-14T03:30:17;100356.78;;;19.02;73.54
5814;BME280;2933;52.302;8.134;2022-08-14T03:35:19;100354.63;;;18.97;73.77
5814;BME280;2933;52.302;8.134;2022-08-14T03:40:22;100337.72;;;18.98;73.48
5814;BME280;2933;52.302;8.134;2022-08-14T03:45:24;100342.63;;;18.75;74.36
5814;BME280;2933;52.302;8.134;2022-08-14T03:50:26;100339.13;;;18.74;74.71
5814;BME280;2933;52.302;8.134;2022-08-14T03:55:30;100327.28;;;18.79;74.50
5814;BME280;2933;52.302;8.134;2022-08-14T04:00:31;100322.56;;;18.54;75.76
5814;BME280;2933;52.302;8.134;2022-08-14T04:05:34;100323.53;;;18.53;75.67
5814;BME280;2933;52.302;8.134;2022-08-14T04:10:39;100313.63;;;18.37;76.43
5814;BME280;2933;52.302;8.134;2022-08-14T04:15:41;100314.03;;;18.43;76.30
5814;BME280;2933;52.302;8.134;2022-08-14T04:20:43;100306.97;;;18.33;76.80
5814;BME280;2933;52.302;8.134;2022-08-14T04:25:46;100312.56;;;18.30;76.82
5814;BME280;2933;52.302;8.134;2022-08-14T04:30:47;100303.94;;;18.28;77.19
5814;BME280;2933;52.302;8.134;2022-08-14T04:35:49;100306.69;;;18.36;77.15
5814;BME280;2933;52.302;8.134;2022-08-14T04:40:53;100311.19;;;18.26;77.77
5814;BME280;2933;52.302;8.134;2022-08-14T04:46:15;100317.31;;;18.27;77.94
5814;BME280;2933;52.302;8.134;2022-08-14T04:51:18;100316.56;;;18.34;78.09
5814;BME280;2933;52.302;8.134;2022-08-14T04:56:22;100314.47;;;18.38;78.75
5814;BME280;2933;52.302;8.134;2022-08-14T05:01:25;100308.91;;;18.59;78.26
5814;BME280;2933;52.302;8.134;2022-08-14T05:06:27;100303.66;;;18.49;78.95
5814;BME280;2933;52.302;8.134;2022-08-14T05:11:30;100300.94;;;18.77;77.57
5814;BME280;2933;52.302;8.134;2022-08-14T05:16:32;100309.41;;;19.17;75.89
5814;BME280;2933;52.302;8.134;2022-08-14T05:21:34;100324.22;;;19.28;76.14
5814;BME280;2933;52.302;8.134;2022-08-14T05:26:37;100317.69;;;19.40;76.57
5814;BME280;2933;52.302;8.134;2022-08-14T05:31:45;100317.97;;;19.55;76.16
5814;BME280;2933;52.302;8.134;2022-08-14T05:36:47;100325.75;;;19.83;74.05
5814;BME280;2933;52.302;8.134;2022-08-14T05:41:50;100314.50;;;19.89;74.84
5814;BME280;2933;52.302;8.134;2022-08-14T05:46:51;100325.59;;;20.19;73.92
5814;BME280;2933;52.302;8.134;2022-08-14T05:51:53;100319.34;;;20.37;72.97
5814;BME280;2933;52.302;8.134;2022-08-14T05:56:56;100306.28;;;20.60;72.20
5814;BME280;2933;52.302;8.134;2022-08-14T06:01:57;100300.38;;;20.74;70.76
5814;BME280;2933;52.302;8.134;2022-08-14T06:06:59;100300.38;;;21.07;70.78
5814;BME280;2933;52.302;8.134;2022-08-14T06:12:02;100297.22;;;21.20;69.51
5814;BME280;2933;52.302;8.134;2022-08-14T06:17:05;100301.00;;;21.42;68.08
5814;BME280;2933;52.302;8.134;2022-08-14T06:22:07;100299.13;;;21.68;68.00
5814;BME280;2933;52.302;8.134;2022-08-14T06:27:10;100300.44;;;21.72;68.07
5814;BME280;2933;52.302;8.134;2022-08-14T06:32:11;100304.72;;;21.89;66.97
5814;BME280;2933;52.302;8.134;2022-08-14T06:37:13;100287.34;;;22.10;66.09
5814;BME280;2933;52.302;8.134;2022-08-14T06:42:19;100284.69;;;22.10;65.91
5814;BME280;2933;52.302;8.134;2022-08-14T06:47:20;100272.81;;;22.21;65.84
5814;BME280;2933;52.302;8.134;2022-08-14T06:52:22;100297.84;;;22.43;64.96
5814;BME280;2933;52.302;8.134;2022-08-14T06:57:32;100285.66;;;22.72;64.82
5814;BME280;2933;52.302;8.134;2022-08-14T07:02:34;100288.31;;;22.95;64.07
5814;BME280;2933;52.302;8.134;2022-08-14T07:07:54;100289.34;;;23.09;63.98
5814;BME280;2933;52.302;8.134;2022-08-14T07:12:58;100285.88;;;23.23;62.38
5814;BME280;2933;52.302;8.134;2022-08-14T07:18:00;100283.81;;;23.34;62.34
5814;BME280;2933;52.302;8.134;2022-08-14T07:23:04;100286.69;;;23.47;61.65
5814;BME280;2933;52.302;8.134;2022-08-14T07:28:12;100284.44;;;23.51;61.37
5814;BME280;2933;52.302;8.134;2022-08-14T07:33:14;100285.94;;;23.68;60.72
5814;BME280;2933;52.302;8.134;2022-08-14T07:38:17;100283.44;;;23.67;60.42
5814;BME280;2933;52.302;8.134;2022-08-14T07:43:21;100272.00;;;23.88;59.60
5814;BME280;2933;52.302;8.134;2022-08-14T07:48:23;100262.38;;;23.57;59.35
5814;BME280;2933;52.302;8.134;2022-08-14T07:53:24;100261.81;;;23.92;59.54
5814;BME280;2933;52.302;8.134;2022-08-14T07:58:27;100269.00;;;23.91;59.61
5814;BME280;2933;52.302;8.134;2022-08-14T08:03:32;100261.19;;;23.90;59.44
5814;BME280;2933;52.302;8.134;2022-08-14T08:08:34;100266.28;;;24.21;59.80
5814;BME280;2933;52.302;8.134;2022-08-14T08:13:40;100257.81;;;24.39;58.49
5814;BME280;2933;52.302;8.134;2022-08-14T08:18:41;100256.59;;;24.57;57.76
5814;BME280;2933;52.302;8.134;2022-08-14T08:23:43;100253.44;;;24.68;57.40
5814;BME280;2933;52.302;8.134;2022-08-14T08:28:56;100255.13;;;24.76;57.70
5814;BME280;2933;52.302;8.134;2022-08-14T08:33:58;100248.38;;;24.80;57.56
5814;BME280;2933;52.302;8.134;2022-08-14T08:39:00;100239.50;;;25.01;56.56
5814;BME280;2933;52.302;8.134;2022-08-14T08:44:04;100239.09;;;25.32;57.15
5814;BME280;2933;52.302;8.134;2022-08-14T08:49:05;100241.13;;;25.65;56.06
5814;BME280;2933;52.302;8.134;2022-08-14T08:54:08;100232.22;;;25.52;55.35
5814;BME280;2933;52.302;8.134;2022-08-14T08:59:21;100217.06;;;25.72;54.34
5814;BME280;2933;52.302;8.134;2022-08-14T09:04:24;100201.59;;;25.61;54.50
5814;BME280;2933;52.302;8.134;2022-08-14T09:09:27;100206.19;;;25.74;53.33
5814;BME280;2933;52.302;8.134;2022-08-14T09:14:30;100178.63;;;25.80;54.10
5814;BME280;2933;52.302;8.134;2022-08-14T09:19:35;100182.81;;;25.96;53.50
5814;BME280;2933;52.302;8.134;2022-08-14T09:24:37;100166.59;;;26.31;52.46
5814;BME280;2933;52.302;8.134;2022-08-14T09:29:40;100156.50;;;26.20;50.63
5814;BME280;2933;52.302;8.134;2022-08-14T09:34:49;100172.97;;;26.30;49.94
5814;BME280;2933;52.302;8.134;2022-08-14T09:40:01;100165.16;;;26.49;49.04
5814;BME280;2933;52.302;8.134;2022-08-14T09:45:16;100152.59;;;26.63;49.50
5814;BME280;2933;52.302;8.134;2022-08-14T09:50:26;100156.47;;;26.93;48.87
5814;BME280;2933;52.302;8.134;2022-08-14T09:55:30;100146.31;;;27.16;48.36
5814;BME280;2933;52.302;8.134;2022-08-14T10:00:43;100139.66;;;27.32;47.54
5814;BME280;2933;52.302;8.134;2022-08-14T10:05:44;100136.53;;;27.48;48.00
5814;BME280;2933;52.302;8.134;2022-08-14T10:10:46;100143.94;;;27.53;47.79
5814;BME280;2933;52.302;8.134;2022-08-14T10:15:50;100138.97;;;27.56;48.11
5814;BME280;2933;52.302;8.134;2022-08-14T10:20:54;100127.25;;;27.37;49.08
5814;BME280;2933;52.302;8.134;2022-08-14T10:26:02;100128.28;;;27.82;47.73
5814;BME280;2933;52.302;8.134;2022-08-14T10:31:15;100109.88;;;27.85;47.42
5814;BME280;2933;52.302;8.134;2022-08-14T10:36:25;100115.41;;;28.48;45.83
5814;BME280;2933;52.302;8.134;2022-08-14T10:41:37;100117.22;;;28.54;45.57
5814;BME280;2933;52.302;8.134;2022-08-14T10:46:43;100102.72;;;28.55;44.81
5814;BME280;2933;52.302;8.134;2022-08-14T10:51:58;100098.44;;;28.91;43.94
5814;BME280;2933;52.302;8.134;2022-08-14T10:57:13;100089.75;;;29.45;43.70
5814;BME280;2933;52.302;8.134;2022-08-14T11:02:20;100080.13;;;29.37;42.29
5814;BME280;2933;52.302;8.134;2022-08-14T11:07:21;100073.66;;;29.57;42.13
5814;BME280;2933;52.302;8.134;2022-08-14T11:12:24;100071.88;;;29.62;41.49
5814;BME280;2933;52.302;8.134;2022-08-14T11:17:27;100079.53;;;29.77;39.46
5814;BME280;2933;52.302;8.134;2022-08-14T11:22:30;100061.03;;;29.69;39.61
5814;BME280;2933;52.302;8.134;2022-08-14T11:27:33;100055.22;;;29.84;39.63
5814;BME280;2933;52.302;8.134;2022-08-14T11:32:38;100054.06;;;30.04;39.82
5814;BME280;2933;52.302;8.134;2022-08-14T11:37:51;100043.66;;;30.19;40.89
5814;BME280;2933;52.302;8.134;2022-08-14T11:42:54;100034.78;;;30.07;40.23
5814;BME280;2933;52.302;8.134;2022-08-14T11:47:57;100028.88;;;30.45;39.24
5814;BME280;2933;52.302;8.134;2022-08-14T11:52:59;100019.63;;;30.53;38.87
5814;BME280;2933;52.302;8.134;2022-08-14T11:58:04;100016.75;;;29.95;38.76
5814;BME280;2933;52.302;8.134;2022-08-14T12:03:07;100018.91;;;29.75;39.15
5814;BME280;2933;52.302;8.134;2022-08-14T12:08:11;100009.50;;;29.42;40.35
5814;BME280;2933;52.302;8.134;2022-08-14T12:13:14;100000.59;;;29.95;39.42
5814;BME280;2933;52.302;8.134;2022-08-14T12:18:28;100002.22;;;30.08;39.28
5814;BME280;2933;52.302;8.134;2022-08-14T12:23:31;99997.16;;;29.88;39.51
5814;BME280;2933;52.302;8.134;2022-08-14T12:28:33;99983.22;;;30.39;38.71
5814;BME280;2933;52.302;8.134;2022-08-14T12:33:36;99968.84;;;30.74;37.06
5814;BME280;2933;52.302;8.134;2022-08-14T12:38:39;99971.53;;;30.74;36.90
5814;BME280;2933;52.302;8.134;2022-08-14T12:43:46;99966.22;;;30.50;36.60
5814;BME280;2933;52.302;8.134;2022-08-14T12:48:52;99955.34;;;31.03;36.58
5814;BME280;2933;52.302;8.134;2022-08-14T12:53:55;99935.91;;;30.72;36.73
5814;BME280;2933;52.302;8.134;2022-08-14T12:58:57;99931.78;;;31.10;36.99
5814;BME280;2933;52.302;8.134;2022-08-14T13:04:05;99933.84;;;31.37;35.16
5814;BME280;2933;52.302;8.134;2022-08-14T13:09:08;99938.75;;;31.40;35.65
5814;BME280;2933;52.302;8.134;2022-08-14T13:14:10;99938.53;;;31.76;36.23
5814;BME280;2933;52.302;8.134;2022-08-14T13:19:18;99936.75;;;31.86;35.05
5814;BME280;2933;52.302;8.134;2022-08-14T13:24:21;99926.75;;;31.31;35.57
5814;BME280;2933;52.302;8.134;2022-08-14T13:29:26;99924.47;;;30.93;35.51
5814;BME280;2933;52.302;8.134;2022-08-14T13:34:30;99920.81;;;31.17;35.80
5814;BME280;2933;52.302;8.134;2022-08-14T13:39:33;99891.41;;;31.32;34.94
5814;BME280;2933;52.302;8.134;2022-08-14T13:44:35;99896.16;;;31.25;34.49
5814;BME280;2933;52.302;8.134;2022-08-14T13:49:41;99880.59;;;31.49;35.00
5814;BME280;2933;52.302;8.134;2022-08-14T13:54:47;99885.28;;;31.37;33.98
5814;BME280;2933;52.302;8.134;2022-08-14T13:59:49;99878.66;;;31.27;34.81
5814;BME280;2933;52.302;8.134;2022-08-14T14:04:54;99872.53;;;31.15;35.93
5814;BME280;2933;52.302;8.134;2022-08-14T14:10:02;99861.88;;;31.25;34.77
5814;BME280;2933;52.302;8.134;2022-08-14T14:15:05;99852.84;;;31.71;34.70
5814;BME280;2933;52.302;8.134;2022-08-14T14:20:13;99844.66;;;31.09;35.46
5814;BME280;2933;52.302;8.134;2022-08-14T14:25:16;99840.28;;;31.25;34.92
5814;BME280;2933;52.302;8.134;2022-08-14T14:30:18;99826.63;;;30.98;35.67
5814;BME280;2933;52.302;8.134;2022-08-14T14:35:23;99834.97;;;31.48;35.06
5814;BME280;2933;52.302;8.134;2022-08-14T14:40:27;99817.41;;;31.28;34.71
5814;BME280;2933;52.302;8.134;2022-08-14T14:45:30;99800.91;;;31.24;35.18
5814;BME280;2933;52.302;8.134;2022-08-14T14:50:34;99795.34;;;30.80;34.74
5814;BME280;2933;52.302;8.134;2022-08-14T14:55:37;99789.13;;;30.97;35.50
5814;BME280;2933;52.302;8.134;2022-08-14T15:00:44;99769.25;;;31.03;35.06
5814;BME280;2933;52.302;8.134;2022-08-14T15:05:48;99779.94;;;31.09;35.20
5814;BME280;2933;52.302;8.134;2022-08-14T15:10:52;99783.69;;;31.08;35.35
5814;BME280;2933;52.302;8.134;2022-08-14T15:15:55;99781.03;;;30.97;35.44
5814;BME280;2933;52.302;8.134;2022-08-14T15:20:58;99775.66;;;31.31;35.57
5814;BME280;2933;52.302;8.134;2022-08-14T15:26:01;99770.56;;;31.00;35.71
5814;BME280;2933;52.302;8.134;2022-08-14T15:31:03;99765.94;;;31.13;35.60
5814;BME280;2933;52.302;8.134;2022-08-14T15:36:07;99768.06;;;30.93;35.48
5814;BME280;2933;52.302;8.134;2022-08-14T15:41:09;99758.47;;;30.86;36.32
5814;BME280;2933;52.302;8.134;2022-08-14T15:46:11;99753.09;;;30.86;35.39
5814;BME280;2933;52.302;8.134;2022-08-14T15:51:17;99758.41;;;31.15;34.29
5814;BME280;2933;52.302;8.134;2022-08-14T15:56:19;99754.16;;;30.85;34.41
5814;BME280;2933;52.302;8.134;2022-08-14T16:01:21;99743.47;;;30.73;34.63
5814;BME280;2933;52.302;8.134;2022-08-14T16:06:25;99742.53;;;30.67;35.20
5814;BME280;2933;52.302;8.134;2022-08-14T16:11:28;99737.25;;;30.72;34.96
5814;BME280;2933;52.302;8.134;2022-08-14T16:16:29;99733.84;;;30.60;35.15
5814;BME280;2933;52.302;8.134;2022-08-14T16:21:33;99733.88;;;30.48;36.16
5814;BME280;2933;52.302;8.134;2022-08-14T16:26:34;99733.59;;;30.61;36.34
5814;BME280;2933;52.302;8.134;2022-08-14T16:31:36;99736.44;;;30.55;35.71
5814;BME280;2933;52.302;8.134;2022-08-14T16:36:40;99725.38;;;30.39;35.65
5814;BME280;2933;52.302;8.134;2022-08-14T16:41:42;99719.97;;;30.39;36.00
5814;BME280;2933;52.302;8.134;2022-08-14T16:46:44;99709.69;;;30.36;35.99
5814;BME280;2933;52.302;8.134;2022-08-14T16:51:48;99705.19;;;30.42;36.07
5814;BME280;2933;52.302;8.134;2022-08-14T16:56:49;99706.50;;;30.39;36.55
5814;BME280;2933;52.302;8.134;2022-08-14T17:01:55;99703.34;;;30.42;36.38
5814;BME280;2933;52.302;8.134;2022-08-14T17:06:59;99703.94;;;30.16;35.22
5814;BME280;2933;52.302;8.134;2022-08-14T17:12:06;99703.09;;;29.98;35.30
5814;BME280;2933;52.302;8.134;2022-08-14T17:17:08;99699.38;;;29.87;36.34
5814;BME280;2933;52.302;8.134;2022-08-14T17:22:12;99695.19;;;29.79;36.75
5814;BME280;2933;52.302;8.134;2022-08-14T17:27:20;99689.88;;;29.56;36.49
5814;BME280;2933;52.302;8.134;2022-08-14T17:32:29;99686.59;;;29.54;37.18
5814;BME280;2933;52.302;8.134;2022-08-14T17:37:35;99684.78;;;29.42;37.03
5814;BME280;2933;52.302;8.134;2022-08-14T17:42:55;99684.56;;;29.32;37.70
5814;BME280;2933;52.302;8.134;2022-08-14T17:48:07;99666.81;;;29.07;37.75
5814;BME280;2933;52.302;8.134;2022-08-14T17:53:28;99680.72;;;29.04;38.50
5814;BME280;2933;52.302;8.134;2022-08-14T17:58:31;99677.81;;;29.06;37.95
5814;BME280;2933;52.302;8.134;2022-08-14T18:03:33;99680.59;;;28.99;38.74
5814;BME280;2933;52.302;8.134;2022-08-14T18:08:40;99679.91;;;28.80;39.39
5814;BME280;2933;52.302;8.134;2022-08-14T18:13:43;99684.81;;;28.71;40.58
5814;BME280;2933;52.302;8.134;2022-08-14T18:18:47;99686.66;;;28.59;40.96
5814;BME280;2933;52.302;8.134;2022-08-14T18:24:05;99688.75;;;28.45;41.65
5814;BME280;2933;52.302;8.134;2022-08-14T18:29:07;99684.56;;;28.07;42.99
5814;BME280;2933;52.302;8.134;2022-08-14T18:34:11;99677.44;;;27.82;44.11
5814;BME280;2933;52.302;8.134;2022-08-14T18:39:28;99674.19;;;27.61;45.42
5814;BME280;2933;52.302;8.134;2022-08-14T18:45:03;99686.19;;;27.40;46.63
5814;BME280;2933;52.302;8.134;2022-08-14T18:50:08;99678.22;;;27.33;46.30
5814;BME280;2933;52.302;8.134;2022-08-14T18:55:40;99678.19;;;27.15;47.25
5814;BME280;2933;52.302;8.134;2022-08-14T19:00:46;99656.28;;;26.81;47.89
5814;BME280;2933;52.302;8.134;2022-08-14T19:05:56;99682.69;;;26.77;48.55
5814;BME280;2933;52.302;8.134;2022-08-14T19:11:01;99678.38;;;26.69;48.07
5814;BME280;2933;52.302;8.134;2022-08-14T19:16:05;99692.41;;;26.46;49.40
5814;BME280;2933;52.302;8.134;2022-08-14T19:21:23;99692.22;;;26.41;48.98
5814;BME280;2933;52.302;8.134;2022-08-14T19:26:26;99691.19;;;26.10;49.74
5814;BME280;2933;52.302;8.134;2022-08-14T19:31:35;99691.63;;;26.00;50.45
5814;BME280;2933;52.302;8.134;2022-08-14T19:36:42;99682.47;;;25.76;51.17
5814;BME280;2933;52.302;8.134;2022-08-14T19:41:54;99681.22;;;25.78;51.55
5814;BME280;2933;52.302;8.134;2022-08-14T19:46:56;99682.75;;;25.68;52.84
5814;BME280;2933;52.302;8.134;2022-08-14T19:51:57;99679.50;;;25.52;53.14
5814;BME280;2933;52.302;8.134;2022-08-14T19:57:01;99679.34;;;25.40;53.78
5814;BME280;2933;52.302;8.134;2022-08-14T20:02:03;99679.75;;;25.30;53.96
5814;BME280;2933;52.302;8.134;2022-08-14T20:07:06;99678.97;;;25.16;54.04
5814;BME280;2933;52.302;8.134;2022-08-14T20:12:18;99677.97;;;25.04;53.47
5814;BME280;2933;52.302;8.134;2022-08-14T20:17:21;99675.31;;;24.97;54.24
5814;BME280;2933;52.302;8.134;2022-08-14T20:22:30;99667.28;;;24.97;54.83
5814;BME280;2933;52.302;8.134;2022-08-14T20:27:36;99672.69;;;24.71;54.80
5814;BME280;2933;52.302;8.134;2022-08-14T20:32:44;99676.31;;;24.63;56.64
5814;BME280;2933;52.302;8.134;2022-08-14T20:37:46;99674.28;;;24.58;56.78
5814;BME280;2933;52.302;8.134;2022-08-14T20:42:52;99664.19;;;24.27;57.91
5814;BME280;2933;52.302;8.134;2022-08-14T20:48:12;99677.13;;;24.30;58.11
5814;BME280;2933;52.302;8.134;2022-08-14T20:53:29;99683.47;;;24.09;58.91
5814;BME280;2933;52.302;8.134;2022-08-14T20:58:36;99671.56;;;24.04;58.80
5814;BME280;2933;52.302;8.134;2022-08-14T21:03:48;99669.63;;;23.85;59.62
5814;BME280;2933;52.302;8.134;2022-08-14T21:08:53;99671.31;;;23.93;57.17
5814;BME280;2933;52.302;8.134;2022-08-14T21:13:55;99660.91;;;24.04;56.85
5814;BME280;2933;52.302;8.134;2022-08-14T21:19:00;99659.03;;;24.12;56.45
5814;BME280;2933;52.302;8.134;2022-08-14T21:24:02;99660.09;;;24.11;56.84
5814;BME280;2933;52.302;8.134;2022-08-14T21:29:04;99655.56;;;24.11;56.69
5814;BME280;2933;52.302;8.134;2022-08-14T21:34:12;99654.06;;;23.88;58.93
5814;BME280;2933;52.302;8.134;2022-08-14T21:39:14;99656.47;;;23.77;59.66
5814;BME280;2933;52.302;8.134;2022-08-14T21:44:18;99658.13;;;23.84;58.71
5814;BME280;2933;52.302;8.134;2022-08-14T21:49:24;99655.44;;;23.78;58.35
5814;BME280;2933;52.302;8.134;2022-08-14T21:54:28;99648.25;;;23.78;58.12
5814;BME280;2933;52.302;8.134;2022-08-14T21:59:32;99648.28;;;23.85;59.02
5814;BME280;2933;52.302;8.134;2022-08-14T22:04:38;99643.09;;;23.63;60.17
5814;BME280;2933;52.302;8.134;2022-08-14T22:09:40;99631.19;;;23.59;60.47
5814;BME280;2933;52.302;8.134;2022-08-14T22:14:41;99629.53;;;23.51;61.25
5814;BME280;2933;52.302;8.134;2022-08-14T22:19:45;99633.00;;;23.52;60.01
5814;BME280;2933;52.302;8.134;2022-08-14T22:24:47;99630.59;;;23.64;59.48
5814;BME280;2933;52.302;8.134;2022-08-14T22:29:49;99624.00;;;23.60;58.27
5814;BME280;2933;52.302;8.134;2022-08-14T22:34:52;99627.66;;;23.52;58.32
5814;BME280;2933;52.302;8.134;2022-08-14T22:39:53;99617.56;;;23.34;59.10
5814;BME280;2933;52.302;8.134;2022-08-14T22:44:55;99606.16;;;23.12;60.52
5814;BME280;2933;52.302;8.134;2022-08-14T22:49:58;99624.75;;;23.05;61.01
5814;BME280;2933;52.302;8.134;2022-08-14T22:55:00;99621.44;;;22.96;61.33
5814;BME280;2933;52.302;8.134;2022-08-14T23:00:04;99616.81;;;22.77;62.27
5814;BME280;2933;52.302;8.134;2022-08-14T23:05:09;99613.91;;;22.71;61.96
5814;BME280;2933;52.302;8.134;2022-08-14T23:10:12;99608.06;;;22.54;62.44
5814;BME280;2933;52.302;8.134;2022-08-14T23:15:15;99604.97;;;22.51;62.81
5814;BME280;2933;52.302;8.134;2022-08-14T23:20:21;99600.78;;;22.41;63.40
5814;BME280;2933;52.302;8.134;2022-08-14T23:25:26;99590.69;;;22.37;62.98
5814;BME280;2933;52.302;8.134;2022-08-14T23:30:29;99598.69;;;22.37;63.22
5814;BME280;2933;52.302;8.134;2022-08-14T23:35:32;99592.00;;;22.19;63.88
5814;BME280;2933;52.302;8.134;2022-08-14T23:40:36;99591.41;;;22.24;63.72
5814;BME280;2933;52.302;8.134;2022-08-14T23:45:40;99585.50;;;22.28;63.52
5814;BME280;2933;52.302;8.134;2022-08-14T23:50:47;99586.28;;;22.22;62.88
5814;BME280;2933;52.302;8.134;2022-08-14T23:55:49;99573.28;;;22.34;62.06
